Fruitland Park, Florida
Current Conditions -  °F | °C
As of 8:53 AM on Sunday 25 Jan 2015 (Local Time) from KLEE Reporting Station
Clear Clear  
Wind Chill: 50°   Ceiling: Unl
Heat Index: 50°   Visibility: 10mi
Dew Point: 36°   Wind: 6mph
Humidity: 59%   Direction: 350°N
Pressure: 30.11"   Gusts: NA
Location:  28.86°N, 81.91°W
Report Text: KLEE 251353Z 35005KT 10SM CLR 10/02 A3011 RMK AO2 SLP196 T01000022
Loading
Personal Weather Stations






























Interactive Weather Map New forecast layout! Learn more

10-Day Weather Forecast

Advertisements
Track Severe Weather on mobile